createdAt,value
2022-12-12T00:03:06.696Z,96084.38
2022-12-12T00:07:07.513Z,96091.13
2022-12-12T00:11:11.322Z,96104.38
2022-12-12T00:15:14.014Z,96103.59
2022-12-12T00:19:14.353Z,96114.84
2022-12-12T00:23:14.438Z,96113.25
2022-12-12T00:27:17.393Z,96089.22
2022-12-12T00:31:18.650Z,96111.28
2022-12-12T00:35:19.009Z,96111.25
2022-12-12T00:39:19.241Z,96096.06
2022-12-12T00:43:21.906Z,96116.84
2022-12-12T00:47:22.007Z,96126.16
2022-12-12T00:51:25.377Z,96124.22
2022-12-12T00:55:26.263Z,96131.47
2022-12-12T00:59:29.512Z,96137.13
2022-12-12T01:03:29.770Z,96142.59
2022-12-12T01:07:29.999Z,96132.78
2022-12-12T01:11:30.494Z,96155.47
2022-12-12T01:15:33.991Z,96153.88
2022-12-12T01:19:34.106Z,96154.88
2022-12-12T01:23:34.261Z,96159.31
2022-12-12T01:27:34.906Z,96161.50
2022-12-12T01:31:37.606Z,96172.25
2022-12-12T01:35:40.234Z,96180.97
2022-12-12T01:39:40.299Z,96169.09
2022-12-12T01:43:40.580Z,96168.75
2022-12-12T01:47:43.343Z,96179.16
2022-12-12T01:51:45.878Z,96155.88
2022-12-12T01:55:49.704Z,96187.44
2022-12-12T01:59:50.084Z,96192.88
2022-12-12T02:03:53.435Z,96180.59
2022-12-12T02:07:54.265Z,96195.75
2022-12-12T02:11:57.580Z,96190.13
2022-12-12T02:16:11.541Z,96192.97
2022-12-12T02:20:45.684Z,96193.34
2022-12-12T02:25:14.285Z,96193.75
2022-12-12T02:29:57.799Z,96193.81
2022-12-12T02:34:10.334Z,96186.28
2022-12-12T02:38:24.579Z,96199.19
2022-12-12T02:42:36.457Z,96194.19
2022-12-12T02:46:44.337Z,96185.75
2022-12-12T02:50:50.196Z,96198.88
2022-12-12T02:54:51.365Z,96181.63
2022-12-12T02:58:51.603Z,96215.63
2022-12-12T03:03:36.102Z,96215.81
2022-12-12T03:07:56.120Z,96199.91
2022-12-12T03:12:09.068Z,96211.50
2022-12-12T03:16:25.897Z,96208.75
2022-12-12T03:20:32.285Z,96218.56
2022-12-12T03:24:42.969Z,96212.13
2022-12-12T03:28:50.274Z,96208.31
2022-12-12T03:33:01.290Z,96204.31
2022-12-12T03:37:12.102Z,96204.72
2022-12-12T03:41:21.783Z,96210.00
2022-12-12T03:45:30.688Z,96210.28
2022-12-12T03:49:38.639Z,96207.50
2022-12-12T03:53:46.767Z,96175.44
2022-12-12T03:57:59.003Z,96210.28
2022-12-12T04:02:10.519Z,96208.63
2022-12-12T04:06:29.765Z,96207.91
2022-12-12T04:10:49.383Z,96213.31
2022-12-12T04:15:22.311Z,96213.25
2022-12-12T04:19:51.004Z,96218.22
2022-12-12T04:24:02.853Z,96218.53
2022-12-12T04:28:08.415Z,96210.13
2022-12-12T04:32:22.687Z,96219.94
2022-12-12T04:36:27.911Z,96219.00
2022-12-12T04:40:34.575Z,96209.66
2022-12-12T04:44:38.360Z,96227.44
2022-12-12T04:48:51.853Z,96233.84
2022-12-12T04:52:59.433Z,96239.59
2022-12-12T04:57:07.758Z,96243.13
2022-12-12T05:01:18.889Z,96233.72
2022-12-12T05:05:31.491Z,96240.66
2022-12-12T05:09:32.265Z,96241.13
2022-12-12T05:13:38.708Z,96232.19
2022-12-12T05:17:47.902Z,96215.31
2022-12-12T05:21:52.086Z,96234.38
2022-12-12T05:25:53.648Z,96244.88
2022-12-12T05:29:55.192Z,96256.06
2022-12-12T05:33:59.106Z,96240.28
2022-12-12T05:38:04.129Z,96258.66
2022-12-12T05:42:04.834Z,96250.53
2022-12-12T05:46:07.271Z,96243.31
2022-12-12T05:50:10.206Z,96256.19
2022-12-12T05:54:14.055Z,96235.16
2022-12-12T05:58:14.998Z,96267.38
2022-12-12T06:02:16.255Z,96233.16
2022-12-12T06:06:16.423Z,96266.09
2022-12-12T06:10:19.425Z,96271.16
2022-12-12T06:14:19.539Z,96277.81
2022-12-12T06:18:19.803Z,96285.63
2022-12-12T06:22:20.057Z,96285.56
2022-12-12T06:26:24.189Z,96287.78
2022-12-12T06:30:25.169Z,96285.16
2022-12-12T06:34:25.320Z,96271.00
2022-12-12T06:38:25.568Z,96302.09
2022-12-12T06:42:28.238Z,96300.38
2022-12-12T06:46:32.441Z,96308.25
2022-12-12T06:50:32.786Z,96310.50
2022-12-12T06:54:32.910Z,96312.63
2022-12-12T06:58:35.572Z,96316.06
2022-12-12T07:02:35.885Z,96325.84
2022-12-12T07:06:36.136Z,96324.69
2022-12-12T07:10:38.923Z,96326.97
2022-12-12T07:14:41.850Z,96324.56
2022-12-12T07:18:42.317Z,96322.25
2022-12-12T07:22:43.071Z,96332.22
2022-12-12T07:26:43.209Z,96333.50
2022-12-12T07:30:49.150Z,96328.28
2022-12-12T07:34:49.709Z,96331.88
2022-12-12T07:38:49.995Z,96336.66
2022-12-12T07:42:50.144Z,96333.50
2022-12-12T07:46:52.930Z,96335.41
2022-12-12T07:50:53.432Z,96339.78
2022-12-12T07:54:53.582Z,96352.00
2022-12-12T07:58:55.405Z,96358.22
2022-12-12T08:02:58.078Z,96356.09
2022-12-12T08:07:04.016Z,96356.66
2022-12-12T08:11:11.523Z,96346.63
2022-12-12T08:15:18.392Z,96364.66
2022-12-12T08:19:21.993Z,96339.84
2022-12-12T08:23:22.404Z,96370.03
2022-12-12T08:27:22.618Z,96363.34
2022-12-12T08:31:24.149Z,96357.47
2022-12-12T08:35:27.596Z,96353.59
2022-12-12T08:39:28.152Z,96373.28
2022-12-12T08:43:28.362Z,96337.53
2022-12-12T08:47:29.537Z,96366.38
2022-12-12T08:51:32.377Z,96362.16
2022-12-12T08:55:33.424Z,96358.06
2022-12-12T08:59:33.794Z,96367.09
2022-12-12T09:03:33.889Z,96375.31
2022-12-12T09:07:37.650Z,96372.19
2022-12-12T09:11:37.755Z,96372.63
2022-12-12T09:15:38.789Z,96369.38
2022-12-12T09:19:39.304Z,96382.00
2022-12-12T09:23:42.006Z,96387.03
2022-12-12T09:27:42.075Z,96392.56
2022-12-12T09:31:42.196Z,96397.13
2022-12-12T09:35:43.655Z,96398.50
2022-12-12T09:39:46.463Z,96395.88
2022-12-12T09:43:59.552Z,96357.22
2022-12-12T09:48:05.402Z,96394.25
2022-12-12T09:52:06.467Z,96381.84
2022-12-12T09:56:21.607Z,96371.72
2022-12-12T10:00:22.528Z,96400.59
2022-12-12T10:04:35.973Z,96406.63
2022-12-12T10:08:48.160Z,96407.88
2022-12-12T10:12:52.838Z,96400.44
2022-12-12T10:16:58.066Z,96403.88
2022-12-12T10:21:04.634Z,96398.31
2022-12-12T10:25:22.134Z,96393.03
2022-12-12T10:29:28.886Z,96392.25
2022-12-12T10:33:43.143Z,96384.06
2022-12-12T10:38:10.142Z,96391.59
2022-12-12T10:42:27.323Z,96391.13
2022-12-12T10:46:41.856Z,96384.16
2022-12-12T10:50:47.576Z,96389.88
2022-12-12T10:54:53.394Z,96365.75
2022-12-12T10:58:59.625Z,96382.47
2022-12-12T11:03:13.263Z,96372.56
2022-12-12T11:07:23.583Z,96355.72
2022-12-12T11:11:25.975Z,96386.41
2022-12-12T11:15:33.547Z,96383.44
2022-12-12T11:19:42.363Z,96356.31
2022-12-12T11:23:53.106Z,96319.41
2022-12-12T11:27:55.565Z,96374.31
2022-12-12T11:31:56.632Z,96375.81
2022-12-12T11:36:01.909Z,96311.66
2022-12-12T11:40:03.838Z,96369.63
2022-12-12T11:44:15.699Z,96374.72
2022-12-12T11:48:43.311Z,96347.47
2022-12-12T11:52:46.956Z,96321.06
2022-12-12T11:56:57.905Z,96334.44
2022-12-12T12:01:06.195Z,96371.00
2022-12-12T12:05:30.854Z,96354.44
2022-12-12T12:09:46.792Z,96371.63
2022-12-12T12:14:26.815Z,96359.91
2022-12-12T12:18:49.524Z,96370.22
2022-12-12T12:23:06.354Z,96358.41
2022-12-12T12:28:32.425Z,96375.88
2022-12-12T12:32:21.271Z,96373.94
2022-12-12T12:36:26.901Z,96370.56
2022-12-12T12:40:44.705Z,96377.78
2022-12-12T12:44:57.110Z,96372.66
2022-12-12T12:49:03.935Z,96371.34
2022-12-12T12:53:10.738Z,96367.06
2022-12-12T12:57:19.064Z,96380.16
2022-12-12T13:01:30.334Z,96370.69
2022-12-12T13:05:38.836Z,96379.03
2022-12-12T13:09:47.016Z,96384.03
2022-12-12T13:13:51.416Z,96372.75
2022-12-12T13:18:01.840Z,96352.53
2022-12-12T13:22:09.223Z,96384.53
2022-12-12T13:26:21.151Z,96385.59
2022-12-12T13:30:27.544Z,96390.34
2022-12-12T13:34:33.909Z,96379.81
2022-12-12T13:38:37.091Z,96379.31
2022-12-12T13:42:57.748Z,96392.94
2022-12-12T13:46:58.015Z,96401.97
2022-12-12T13:51:37.802Z,96397.34
2022-12-12T13:55:38.961Z,96404.94
2022-12-12T14:00:19.577Z,96406.00
2022-12-12T14:04:34.616Z,96389.16
2022-12-12T14:08:42.301Z,96402.81
2022-12-12T14:12:43.194Z,96410.31
2022-12-12T14:16:44.219Z,96397.47
2022-12-12T14:20:47.001Z,96393.06
2022-12-12T14:25:21.907Z,96368.50
2022-12-12T14:29:29.013Z,96405.03
2022-12-12T14:33:58.350Z,96405.53
2022-12-12T14:38:17.913Z,96390.28
2022-12-12T14:43:18.087Z,96397.03
2022-12-12T14:47:10.916Z,96372.69
2022-12-12T14:51:16.351Z,96403.00
2022-12-12T14:55:18.919Z,96396.72
2022-12-12T14:59:28.452Z,96408.63
2022-12-12T15:03:34.804Z,96370.81
2022-12-12T15:07:38.348Z,96416.56
2022-12-12T15:11:39.357Z,96399.47
2022-12-12T15:15:42.167Z,96413.06
2022-12-12T15:19:47.699Z,96411.50
2022-12-12T15:23:48.086Z,96419.59
2022-12-12T15:27:56.150Z,96405.91
2022-12-12T15:32:05.245Z,96409.97
2022-12-12T15:36:05.616Z,96412.44
2022-12-12T15:40:27.500Z,96398.88
2022-12-12T15:44:27.920Z,96417.22
2022-12-12T15:48:30.812Z,96425.63
2022-12-12T15:52:35.753Z,96412.69
2022-12-12T15:56:35.891Z,96365.47
2022-12-12T16:00:41.402Z,96420.31
2022-12-12T16:04:44.243Z,96423.50
2022-12-12T16:08:57.025Z,96422.31
2022-12-12T16:13:04.681Z,96421.47
2022-12-12T16:17:09.936Z,96415.75
2022-12-12T16:21:13.726Z,96422.56
2022-12-12T16:25:21.535Z,96432.81
2022-12-12T16:29:21.774Z,96437.81
2022-12-12T16:33:30.882Z,96429.31
2022-12-12T16:37:33.693Z,96429.91
2022-12-12T16:41:33.905Z,96451.22
2022-12-12T16:45:34.470Z,96450.41
2022-12-12T16:49:34.640Z,96440.00
2022-12-12T16:53:38.577Z,96438.41
2022-12-12T16:57:38.621Z,96458.09
2022-12-12T17:01:39.412Z,96461.19
2022-12-12T17:05:41.269Z,96448.28
2022-12-12T17:09:44.151Z,96457.56
2022-12-12T17:13:50.125Z,96457.97
2022-12-12T17:17:50.388Z,96414.72
2022-12-12T17:21:50.972Z,96454.75
2022-12-12T17:25:58.868Z,96457.00
2022-12-12T17:30:02.915Z,96451.84
2022-12-12T17:34:04.387Z,96438.31
2022-12-12T17:38:04.695Z,96458.91
2022-12-12T17:42:07.617Z,96460.75
2022-12-12T17:46:14.388Z,96418.69
2022-12-12T17:50:15.251Z,96439.50
2022-12-12T17:54:15.712Z,96459.97
2022-12-12T17:58:18.576Z,96472.88
2022-12-12T18:02:18.740Z,96478.22
2022-12-12T18:06:20.868Z,96482.91
2022-12-12T18:10:21.235Z,96456.75
2022-12-12T18:14:24.457Z,96486.63
2022-12-12T18:18:25.311Z,96476.38
2022-12-12T18:22:25.551Z,96481.44
2022-12-12T18:26:26.943Z,96481.78
2022-12-12T18:30:32.440Z,96478.91
2022-12-12T18:34:32.649Z,96499.50
2022-12-12T18:38:33.338Z,96478.28
2022-12-12T18:42:33.609Z,96495.09
2022-12-12T18:46:42.819Z,96509.94
2022-12-12T18:50:43.709Z,96497.69
2022-12-12T18:54:43.930Z,96487.69
2022-12-12T18:58:44.226Z,96501.16
2022-12-12T19:02:47.644Z,96481.38
2022-12-12T19:06:48.141Z,96495.59
2022-12-12T19:10:49.442Z,96497.88
2022-12-12T19:15:15.790Z,96508.63
2022-12-12T19:19:13.612Z,96514.47
2022-12-12T19:23:14.173Z,96512.41
2022-12-12T19:27:14.342Z,96477.91
2022-12-12T19:31:18.496Z,96510.81
2022-12-12T19:35:22.197Z,96494.38
2022-12-12T19:39:22.495Z,96496.25
2022-12-12T19:43:22.677Z,96459.56
2022-12-12T19:47:22.855Z,96512.34
2022-12-12T19:51:28.284Z,96498.44
2022-12-12T19:55:28.650Z,96505.09
2022-12-12T19:59:28.876Z,96523.78
2022-12-12T20:03:29.064Z,96510.13
2022-12-12T20:07:31.888Z,96522.38
2022-12-12T20:11:33.404Z,96520.63
2022-12-12T20:15:33.606Z,96529.09
2022-12-12T20:19:34.091Z,96449.75
2022-12-12T20:23:46.753Z,96526.72
2022-12-12T20:27:47.195Z,96533.94
2022-12-12T20:31:49.986Z,96528.06
2022-12-12T20:35:50.348Z,96514.28
2022-12-12T20:39:53.502Z,96510.31
2022-12-12T20:43:56.148Z,96525.91
2022-12-12T20:47:56.828Z,96510.69
2022-12-12T20:51:59.385Z,96527.25
2022-12-12T20:56:10.660Z,96521.47
2022-12-12T21:00:14.586Z,96524.22
2022-12-12T21:04:15.447Z,96515.59
2022-12-12T21:08:15.923Z,96517.66
2022-12-12T21:12:18.818Z,96519.50
2022-12-12T21:16:22.533Z,96484.53
2022-12-12T21:20:22.834Z,96519.09
2022-12-12T21:24:23.235Z,96514.38
2022-12-12T21:28:26.174Z,96497.84
2022-12-12T21:32:26.674Z,96498.84
2022-12-12T21:36:28.255Z,96479.25
2022-12-12T21:40:29.174Z,96518.06
2022-12-12T21:44:32.074Z,96512.53
2022-12-12T21:48:32.941Z,96505.75
2022-12-12T21:52:33.247Z,96475.25
2022-12-12T21:56:34.488Z,96440.28
2022-12-12T22:00:40.385Z,96497.34
2022-12-12T22:04:40.843Z,96504.97
2022-12-12T22:08:41.707Z,96502.22
2022-12-12T22:12:42.161Z,96513.56
2022-12-12T22:16:45.074Z,96508.88
2022-12-12T22:20:45.656Z,96513.25
2022-12-12T22:24:45.840Z,96525.09
2022-12-12T22:28:46.876Z,96506.44
2022-12-12T22:32:50.050Z,96497.56
2022-12-12T22:36:51.019Z,96492.84
2022-12-12T22:40:57.450Z,96499.66
2022-12-12T22:44:57.736Z,96503.88
2022-12-12T22:49:03.541Z,96483.78
2022-12-12T22:53:04.048Z,96506.81
2022-12-12T22:57:04.321Z,96507.94
2022-12-12T23:01:11.322Z,96497.41
2022-12-12T23:05:14.773Z,96397.19
2022-12-12T23:09:21.693Z,96493.34
2022-12-12T23:13:22.838Z,96487.00
2022-12-12T23:17:23.433Z,96487.34
2022-12-12T23:21:27.946Z,96486.38
2022-12-12T23:25:28.367Z,96451.34
2022-12-12T23:29:29.145Z,96494.00
2022-12-12T23:33:29.761Z,96473.72
2022-12-12T23:37:32.420Z,96468.38
2022-12-12T23:41:33.322Z,96482.81
2022-12-12T23:45:33.705Z,96488.63
2022-12-12T23:49:34.046Z,96480.22
2022-12-12T23:53:37.176Z,96482.81
2022-12-12T23:57:37.445Z,96488.00
